createdAt,value
2023-07-24T00:00:04.067Z,16.35
2023-07-24T00:02:30.526Z,16.36
2023-07-24T00:04:57.032Z,16.32
2023-07-24T00:07:24.263Z,16.33
2023-07-24T00:09:50.697Z,16.35
2023-07-24T00:12:17.200Z,16.29
2023-07-24T00:14:43.648Z,16.31
2023-07-24T00:17:10.115Z,16.32
2023-07-24T00:19:36.606Z,16.30
2023-07-24T00:22:03.112Z,16.38
2023-07-24T00:24:31.316Z,16.34
2023-07-24T00:26:57.902Z,16.36
2023-07-24T00:29:24.445Z,16.40
2023-07-24T00:31:50.940Z,16.44
2023-07-24T00:34:17.381Z,16.40
2023-07-24T00:36:43.828Z,16.38
2023-07-24T00:39:10.288Z,16.43
2023-07-24T00:41:36.759Z,16.55
2023-07-24T00:44:03.236Z,16.56
2023-07-24T00:46:33.841Z,16.62
2023-07-24T00:49:01.763Z,16.51
2023-07-24T00:51:28.815Z,16.46
2023-07-24T00:53:56.838Z,16.50
2023-07-24T00:56:24.185Z,16.48
2023-07-24T00:58:50.731Z,16.41
2023-07-24T01:01:18.918Z,16.32
2023-07-24T01:03:45.575Z,16.37
2023-07-24T01:06:12.040Z,16.37
2023-07-24T01:08:38.467Z,16.34
2023-07-24T01:11:14.085Z,16.35
2023-07-24T01:13:45.211Z,16.43
2023-07-24T01:16:17.321Z,16.34
2023-07-24T01:18:45.260Z,16.37
2023-07-24T01:21:13.702Z,16.35
2023-07-24T01:23:56.561Z,16.39
2023-07-24T01:26:25.087Z,16.43
2023-07-24T01:28:51.718Z,16.35
2023-07-24T01:31:18.302Z,16.33
2023-07-24T01:33:45.840Z,16.31
2023-07-24T01:36:13.584Z,16.28
2023-07-24T01:38:40.931Z,16.31
2023-07-24T01:41:07.671Z,16.27
2023-07-24T01:43:34.152Z,16.30
2023-07-24T01:46:00.640Z,16.29
2023-07-24T01:48:27.178Z,16.29
2023-07-24T01:50:53.615Z,16.37
2023-07-24T01:53:20.052Z,16.35
2023-07-24T01:55:46.511Z,16.43
2023-07-24T01:58:12.927Z,16.41
2023-07-24T02:00:39.345Z,16.39
2023-07-24T02:03:06.556Z,16.39
2023-07-24T02:05:33.113Z,16.34
2023-07-24T02:07:59.522Z,16.33
2023-07-24T02:10:25.956Z,16.37
2023-07-24T02:12:52.377Z,16.44
2023-07-24T02:15:18.790Z,16.46
2023-07-24T02:17:45.300Z,16.48
2023-07-24T02:20:11.888Z,16.43
2023-07-24T02:22:38.341Z,16.51
2023-07-24T02:25:05.063Z,16.56
2023-07-24T02:27:35.242Z,16.62
2023-07-24T02:30:02.250Z,16.60
2023-07-24T02:32:28.804Z,16.68
2023-07-24T02:34:55.297Z,16.73
2023-07-24T02:37:21.892Z,16.79
2023-07-24T02:39:48.328Z,16.82
2023-07-24T02:42:14.789Z,16.86
2023-07-24T02:44:41.242Z,16.96
2023-07-24T02:47:07.739Z,16.96
2023-07-24T02:49:34.239Z,16.98
2023-07-24T02:52:00.863Z,16.99
2023-07-24T02:54:27.932Z,17.10
2023-07-24T02:56:54.407Z,17.08
2023-07-24T02:59:20.924Z,17.03
2023-07-24T03:01:47.428Z,17.14
2023-07-24T03:04:13.912Z,17.13
2023-07-24T03:06:40.831Z,17.22
2023-07-24T03:09:07.551Z,17.12
2023-07-24T03:11:33.991Z,17.14
2023-07-24T03:14:00.435Z,17.21
2023-07-24T03:16:26.984Z,17.30
2023-07-24T03:18:53.610Z,17.15
2023-07-24T03:21:21.476Z,17.18
2023-07-24T03:23:47.921Z,17.26
2023-07-24T03:26:14.341Z,17.36
2023-07-24T03:28:40.771Z,17.31
2023-07-24T03:31:07.336Z,17.25
2023-07-24T03:33:33.847Z,17.32
2023-07-24T03:36:00.264Z,17.27
2023-07-24T03:38:26.681Z,17.16
2023-07-24T03:40:53.124Z,17.25
2023-07-24T03:43:19.555Z,17.24
2023-07-24T03:45:46.405Z,17.27
2023-07-24T03:48:12.809Z,17.30
2023-07-24T03:50:39.252Z,17.29
2023-07-24T03:53:05.661Z,17.18
2023-07-24T03:55:32.119Z,17.21
2023-07-24T03:57:58.539Z,17.18
2023-07-24T04:00:24.976Z,17.21
2023-07-24T04:02:51.718Z,17.19
2023-07-24T04:05:18.301Z,17.28
2023-07-24T04:07:44.755Z,17.19
2023-07-24T04:10:11.401Z,17.24
2023-07-24T04:12:37.865Z,17.37
2023-07-24T04:15:04.772Z,17.28
2023-07-24T04:17:31.393Z,17.24
2023-07-24T04:19:57.842Z,17.18
2023-07-24T04:22:24.292Z,17.25
2023-07-24T04:24:50.803Z,17.23
2023-07-24T04:27:17.304Z,17.29
2023-07-24T04:29:43.794Z,17.36
2023-07-24T04:32:10.222Z,17.29
2023-07-24T04:34:36.757Z,17.20
2023-07-24T04:37:03.252Z,17.25
2023-07-24T04:39:29.687Z,17.22
2023-07-24T04:41:56.149Z,17.31
2023-07-24T04:44:22.651Z,17.23
2023-07-24T04:46:49.247Z,17.20
2023-07-24T04:49:15.709Z,17.32
2023-07-24T04:51:42.155Z,17.24
2023-07-24T04:54:08.675Z,17.28
2023-07-24T04:56:35.138Z,17.24
2023-07-24T04:59:01.565Z,17.22
2023-07-24T05:01:28.064Z,17.24
2023-07-24T05:03:54.510Z,17.37
2023-07-24T05:06:20.941Z,17.28
2023-07-24T05:08:47.382Z,17.29
2023-07-24T05:11:13.834Z,17.39
2023-07-24T05:13:40.348Z,17.33
2023-07-24T05:16:06.817Z,17.38
2023-07-24T05:18:33.259Z,17.54
2023-07-24T05:20:59.865Z,17.54
2023-07-24T05:23:26.390Z,17.51
2023-07-24T05:26:03.602Z,17.60
2023-07-24T05:28:32.159Z,17.61
2023-07-24T05:31:04.329Z,17.62
2023-07-24T05:33:31.571Z,17.52
2023-07-24T05:36:02.175Z,17.60
2023-07-24T05:38:29.784Z,17.58
2023-07-24T05:40:57.800Z,17.57
2023-07-24T05:43:24.478Z,17.62
2023-07-24T05:45:55.320Z,17.63
2023-07-24T05:48:22.154Z,17.51
2023-07-24T05:50:48.897Z,17.56
2023-07-24T05:53:16.082Z,17.64
2023-07-24T05:55:43.660Z,17.76
2023-07-24T05:58:10.900Z,17.90
2023-07-24T06:00:40.419Z,17.96
2023-07-24T06:03:08.616Z,18.12
2023-07-24T06:05:35.651Z,18.08
2023-07-24T06:08:02.112Z,17.95
2023-07-24T06:10:28.537Z,18.09
2023-07-24T06:12:55.019Z,18.29
2023-07-24T06:15:21.536Z,18.44
2023-07-24T06:17:48.139Z,18.42
2023-07-24T06:20:14.594Z,18.38
2023-07-24T06:22:41.101Z,18.62
2023-07-24T06:25:07.949Z,18.53
2023-07-24T06:27:34.431Z,18.49
2023-07-24T06:30:12.893Z,18.52
2023-07-24T06:32:42.086Z,18.48
2023-07-24T06:35:08.632Z,18.49
2023-07-24T06:37:35.080Z,18.60
2023-07-24T06:40:01.522Z,18.38
2023-07-24T06:42:27.957Z,18.35
2023-07-24T06:44:54.417Z,18.26
2023-07-24T06:47:20.913Z,18.30
2023-07-24T06:49:48.136Z,18.48
2023-07-24T06:52:14.713Z,18.37
2023-07-24T06:54:41.117Z,18.33
2023-07-24T06:57:07.618Z,18.48
2023-07-24T06:59:34.139Z,18.41
2023-07-24T07:02:00.624Z,18.50
2023-07-24T07:04:27.207Z,18.55
2023-07-24T07:06:53.639Z,18.37
2023-07-24T07:09:20.042Z,18.18
2023-07-24T07:11:46.458Z,18.26
2023-07-24T07:14:13.784Z,18.48
2023-07-24T07:16:40.425Z,18.32
2023-07-24T07:19:06.868Z,18.30
2023-07-24T07:21:33.296Z,18.35
2023-07-24T07:23:59.882Z,18.41
2023-07-24T07:26:26.506Z,18.26
2023-07-24T07:28:53.022Z,18.32
2023-07-24T07:31:19.459Z,18.34
2023-07-24T07:33:45.973Z,18.30
2023-07-24T07:36:13.252Z,18.56
2023-07-24T07:38:40.806Z,18.35
2023-07-24T07:41:07.506Z,18.36
2023-07-24T07:43:34.055Z,18.25
2023-07-24T07:46:00.505Z,18.35
2023-07-24T07:48:27.005Z,18.46
2023-07-24T07:50:53.544Z,18.55
2023-07-24T07:53:19.954Z,18.33
2023-07-24T07:55:46.583Z,18.29
2023-07-24T07:58:13.170Z,18.47
2023-07-24T08:00:40.811Z,18.40
2023-07-24T08:03:07.532Z,18.23
2023-07-24T08:05:34.119Z,18.01
2023-07-24T08:08:00.564Z,17.75
2023-07-24T08:10:27.055Z,17.75
2023-07-24T08:12:53.490Z,17.79
2023-07-24T08:15:19.924Z,17.89
2023-07-24T08:17:46.448Z,17.60
2023-07-24T08:20:13.014Z,17.64
2023-07-24T08:22:39.476Z,17.71
2023-07-24T08:25:06.433Z,17.79
2023-07-24T08:27:34.525Z,17.71
2023-07-24T08:30:02.742Z,17.84
2023-07-24T08:32:29.455Z,17.92
2023-07-24T08:34:55.877Z,17.99
2023-07-24T08:37:22.382Z,18.14
2023-07-24T08:39:48.840Z,18.24
2023-07-24T08:42:15.440Z,18.24
2023-07-24T08:44:43.071Z,18.23
2023-07-24T08:47:12.362Z,18.23
2023-07-24T08:49:41.372Z,18.28
2023-07-24T08:52:10.593Z,18.26
2023-07-24T08:54:40.092Z,18.40
2023-07-24T08:57:09.757Z,18.11
2023-07-24T08:59:36.245Z,18.22
2023-07-24T09:02:02.830Z,18.08
2023-07-24T09:04:29.765Z,17.94
2023-07-24T09:06:58.133Z,17.99
2023-07-24T09:09:24.563Z,17.86
2023-07-24T09:11:52.928Z,18.10
2023-07-24T09:14:23.198Z,18.21
2023-07-24T09:16:49.798Z,18.17
2023-07-24T09:19:26.853Z,18.26
2023-07-24T09:21:53.510Z,18.28
2023-07-24T09:24:19.936Z,18.19
2023-07-24T09:26:58.648Z,18.46
2023-07-24T09:29:32.557Z,18.95
2023-07-24T09:32:00.085Z,19.05
2023-07-24T09:34:29.570Z,19.20
2023-07-24T09:36:56.701Z,19.52
2023-07-24T09:39:30.472Z,19.54
2023-07-24T09:42:07.050Z,19.18
2023-07-24T09:44:33.750Z,19.49
2023-07-24T09:47:24.572Z,19.37
2023-07-24T09:49:48.025Z,19.36
2023-07-24T09:52:18.954Z,19.32
2023-07-24T09:54:58.516Z,19.38
2023-07-24T09:57:25.334Z,19.77
2023-07-24T09:59:53.872Z,19.77
2023-07-24T10:02:20.534Z,19.98
2023-07-24T10:04:47.815Z,19.82
2023-07-24T10:07:14.854Z,19.69
2023-07-24T10:09:44.230Z,19.77
2023-07-24T10:12:11.078Z,19.22
2023-07-24T10:14:38.545Z,19.16
2023-07-24T10:17:05.338Z,19.47
2023-07-24T10:19:41.089Z,20.18
2023-07-24T10:22:07.798Z,20.15
2023-07-24T10:24:41.763Z,20.27
2023-07-24T10:27:09.024Z,20.73
2023-07-24T10:29:37.175Z,20.59
2023-07-24T10:32:04.087Z,21.02
2023-07-24T10:34:40.275Z,21.57
2023-07-24T10:37:10.204Z,22.55
2023-07-24T10:39:41.306Z,23.09
2023-07-24T10:42:10.473Z,22.88
2023-07-24T10:44:37.395Z,23.44
2023-07-24T10:47:04.348Z,23.22
2023-07-24T10:49:30.776Z,22.76
2023-07-24T10:52:00.367Z,23.00
2023-07-24T10:54:26.831Z,24.19
2023-07-24T10:57:03.234Z,24.14
2023-07-24T10:59:41.920Z,24.37
2023-07-24T11:02:08.455Z,23.75
2023-07-24T11:04:35.613Z,24.10
2023-07-24T11:07:02.516Z,24.98
2023-07-24T11:09:41.252Z,24.66
2023-07-24T11:12:15.737Z,23.23
2023-07-24T11:14:52.498Z,22.01
2023-07-24T11:17:19.009Z,21.80
2023-07-24T11:19:45.499Z,22.49
2023-07-24T11:22:12.190Z,22.85
2023-07-24T11:24:48.440Z,22.71
2023-07-24T11:27:18.669Z,22.95
2023-07-24T11:29:50.260Z,22.90
2023-07-24T11:32:21.691Z,23.19
2023-07-24T11:34:49.777Z,23.25
2023-07-24T11:37:17.366Z,22.81
2023-07-24T11:39:43.815Z,22.82
2023-07-24T11:42:10.261Z,22.80
2023-07-24T11:44:36.705Z,22.71
2023-07-24T11:47:05.491Z,22.28
2023-07-24T11:49:32.766Z,22.28
2023-07-24T11:52:06.936Z,22.00
2023-07-24T11:54:36.575Z,22.15
2023-07-24T11:57:03.274Z,22.09
2023-07-24T11:59:37.985Z,22.82
2023-07-24T12:02:04.771Z,24.21
2023-07-24T12:04:32.076Z,24.80
2023-07-24T12:06:59.141Z,25.00
2023-07-24T12:09:30.895Z,25.52
2023-07-24T12:12:00.168Z,25.75
2023-07-24T12:14:26.711Z,26.22
2023-07-24T12:17:10.737Z,26.10
2023-07-24T12:19:37.349Z,24.48
2023-07-24T12:22:05.220Z,24.41
2023-07-24T12:24:31.780Z,23.84
2023-07-24T12:26:58.245Z,23.55
2023-07-24T12:29:24.723Z,22.85
2023-07-24T12:31:51.181Z,22.36
2023-07-24T12:34:17.594Z,22.44
2023-07-24T12:36:44.620Z,22.03
2023-07-24T12:39:11.069Z,22.00
2023-07-24T12:41:37.474Z,21.55
2023-07-24T12:44:03.988Z,21.58
2023-07-24T12:46:30.917Z,21.40
2023-07-24T12:48:57.326Z,21.23
2023-07-24T12:51:23.817Z,21.53
2023-07-24T12:53:52.883Z,21.82
2023-07-24T12:56:22.087Z,22.60
2023-07-24T12:58:48.501Z,24.32
2023-07-24T13:01:14.994Z,24.85
2023-07-24T13:03:41.719Z,24.87
2023-07-24T13:06:08.334Z,25.14
2023-07-24T13:08:34.742Z,24.86
2023-07-24T13:11:01.290Z,25.04
2023-07-24T13:13:28.303Z,25.53
2023-07-24T13:15:55.020Z,25.47
2023-07-24T13:18:27.604Z,24.50
2023-07-24T13:20:55.185Z,24.22
2023-07-24T13:23:21.616Z,23.90
2023-07-24T13:25:48.049Z,23.41
2023-07-24T13:28:14.749Z,22.87
2023-07-24T13:30:41.180Z,22.78
2023-07-24T13:33:08.272Z,23.28
2023-07-24T13:35:34.760Z,24.59
2023-07-24T13:38:01.175Z,25.67
2023-07-24T13:40:27.856Z,25.24
2023-07-24T13:42:54.398Z,25.89
2023-07-24T13:45:20.917Z,24.81
2023-07-24T13:47:47.384Z,24.81
2023-07-24T13:50:13.812Z,24.10
2023-07-24T13:52:40.276Z,24.38
2023-07-24T13:55:07.006Z,24.61
2023-07-24T13:57:33.413Z,24.75
2023-07-24T13:59:59.863Z,24.05
2023-07-24T14:02:26.365Z,23.79
2023-07-24T14:04:54.323Z,24.26
2023-07-24T14:07:20.841Z,24.45
2023-07-24T14:09:47.393Z,24.01
2023-07-24T14:12:13.846Z,23.83
2023-07-24T14:14:40.360Z,23.25
2023-07-24T14:17:06.875Z,22.91
2023-07-24T14:19:33.422Z,23.56
2023-07-24T14:21:59.941Z,24.12
2023-07-24T14:24:26.411Z,24.21
2023-07-24T14:26:52.878Z,24.15
2023-07-24T14:29:19.750Z,23.58
2023-07-24T14:31:46.211Z,23.99
2023-07-24T14:34:13.578Z,23.87
2023-07-24T14:36:40.309Z,23.58
2023-07-24T14:39:08.906Z,23.78
2023-07-24T14:41:35.854Z,23.87
2023-07-24T14:44:02.337Z,23.74
2023-07-24T14:46:28.836Z,23.48
2023-07-24T14:48:55.368Z,23.32
2023-07-24T14:51:21.816Z,22.40
2023-07-24T14:53:48.235Z,22.30
2023-07-24T14:56:14.646Z,22.93
2023-07-24T14:58:43.388Z,23.09
2023-07-24T15:01:10.017Z,23.40
2023-07-24T15:03:36.531Z,23.17
2023-07-24T15:06:05.679Z,23.26
2023-07-24T15:08:32.157Z,23.00
2023-07-24T15:10:58.611Z,22.17
2023-07-24T15:13:25.669Z,22.67
2023-07-24T15:15:52.158Z,22.26
2023-07-24T15:18:18.777Z,22.51
2023-07-24T15:20:45.203Z,22.33
2023-07-24T15:23:12.055Z,21.79
2023-07-24T15:25:38.460Z,21.55
2023-07-24T15:28:05.091Z,21.40
2023-07-24T15:30:32.554Z,21.21
2023-07-24T15:32:59.195Z,21.14
2023-07-24T15:35:25.693Z,21.19
2023-07-24T15:37:52.161Z,21.17
2023-07-24T15:40:18.744Z,21.15
2023-07-24T15:42:45.636Z,21.08
2023-07-24T15:45:12.163Z,20.96
2023-07-24T15:47:38.652Z,21.05
2023-07-24T15:50:05.767Z,20.97
2023-07-24T15:52:33.042Z,20.72
2023-07-24T15:55:00.628Z,20.79
2023-07-24T15:57:27.135Z,20.83
2023-07-24T15:59:53.620Z,20.98
2023-07-24T16:02:20.133Z,20.99
2023-07-24T16:04:46.626Z,20.83
2023-07-24T16:07:13.122Z,20.90
2023-07-24T16:09:39.523Z,20.97
2023-07-24T16:12:06.370Z,20.86
2023-07-24T16:14:32.792Z,20.86
2023-07-24T16:16:59.236Z,20.90
2023-07-24T16:19:25.723Z,20.79
2023-07-24T16:21:52.739Z,20.63
2023-07-24T16:24:21.098Z,20.67
2023-07-24T16:26:48.334Z,20.67
2023-07-24T16:29:15.413Z,20.78
2023-07-24T16:31:42.231Z,20.93
2023-07-24T16:34:08.941Z,20.98
2023-07-24T16:36:36.258Z,21.26
2023-07-24T16:39:03.748Z,21.17
2023-07-24T16:41:31.314Z,20.78
2023-07-24T16:44:01.864Z,20.66
2023-07-24T16:46:29.125Z,20.66
2023-07-24T16:48:55.548Z,20.92
2023-07-24T16:51:22.052Z,20.99
2023-07-24T16:53:48.524Z,20.81
2023-07-24T16:56:14.938Z,20.89
2023-07-24T16:58:41.432Z,20.47
2023-07-24T17:01:08.004Z,20.48
2023-07-24T17:03:34.513Z,20.21
2023-07-24T17:06:00.993Z,20.06
2023-07-24T17:08:27.430Z,19.94
2023-07-24T17:10:53.858Z,19.69
2023-07-24T17:13:20.362Z,19.55
2023-07-24T17:15:46.804Z,19.28
2023-07-24T17:18:13.220Z,19.36
2023-07-24T17:20:39.722Z,19.41
2023-07-24T17:23:07.012Z,19.55
2023-07-24T17:25:33.666Z,19.45
2023-07-24T17:28:00.125Z,19.56
2023-07-24T17:30:26.727Z,19.47
2023-07-24T17:32:53.287Z,19.44
2023-07-24T17:35:19.766Z,19.52
2023-07-24T17:37:46.226Z,19.58
2023-07-24T17:40:12.827Z,19.59
2023-07-24T17:42:39.289Z,19.39
2023-07-24T17:45:07.264Z,19.30
2023-07-24T17:47:33.998Z,19.15
2023-07-24T17:50:06.605Z,19.35
2023-07-24T17:52:34.955Z,19.48
2023-07-24T17:55:01.463Z,19.29
2023-07-24T17:57:27.981Z,19.38
2023-07-24T17:59:54.393Z,19.40
2023-07-24T18:02:20.897Z,19.52
2023-07-24T18:04:47.377Z,19.48
2023-07-24T18:07:13.858Z,19.63
2023-07-24T18:09:40.305Z,19.68
2023-07-24T18:12:07.419Z,19.39
2023-07-24T18:14:33.842Z,19.52
2023-07-24T18:17:00.257Z,19.50
2023-07-24T18:19:26.684Z,19.43
2023-07-24T18:21:53.118Z,19.40
2023-07-24T18:24:21.641Z,19.24
2023-07-24T18:26:48.138Z,19.19
2023-07-24T18:29:15.091Z,19.10
2023-07-24T18:31:41.581Z,18.98
2023-07-24T18:34:08.051Z,18.85
2023-07-24T18:36:34.503Z,18.93
2023-07-24T18:39:01.183Z,18.81
2023-07-24T18:41:27.669Z,18.48
2023-07-24T18:43:54.141Z,18.42
2023-07-24T18:46:20.620Z,18.44
2023-07-24T18:48:47.164Z,18.54
2023-07-24T18:51:14.056Z,18.39
2023-07-24T18:53:40.926Z,18.40
2023-07-24T18:56:07.426Z,18.21
2023-07-24T18:58:33.855Z,18.38
2023-07-24T19:01:00.319Z,18.39
2023-07-24T19:03:26.758Z,18.17
2023-07-24T19:05:53.857Z,18.15
2023-07-24T19:08:20.301Z,17.96
2023-07-24T19:10:46.959Z,17.99
2023-07-24T19:13:13.391Z,17.76
2023-07-24T19:15:39.830Z,17.80
2023-07-24T19:18:06.268Z,17.62
2023-07-24T19:20:33.571Z,17.45
2023-07-24T19:23:00.393Z,17.33
2023-07-24T19:25:27.957Z,17.36
2023-07-24T19:27:54.438Z,17.38
2023-07-24T19:30:20.885Z,17.31
2023-07-24T19:32:47.491Z,17.24
2023-07-24T19:35:13.994Z,17.15
2023-07-24T19:37:41.715Z,17.00
2023-07-24T19:40:08.944Z,16.97
2023-07-24T19:42:35.486Z,16.91
2023-07-24T19:45:02.069Z,16.95
2023-07-24T19:47:28.537Z,16.74
2023-07-24T19:49:54.991Z,16.67
2023-07-24T19:52:23.633Z,16.57
2023-07-24T19:54:51.795Z,16.54
2023-07-24T19:57:18.263Z,16.61
2023-07-24T19:59:44.694Z,16.63
2023-07-24T20:02:12.379Z,16.59
2023-07-24T20:04:38.865Z,16.60
2023-07-24T20:07:06.414Z,16.65
2023-07-24T20:09:32.894Z,16.75
2023-07-24T20:11:59.558Z,16.69
2023-07-24T20:14:26.003Z,16.75
2023-07-24T20:16:52.423Z,16.81
2023-07-24T20:19:18.980Z,16.79
2023-07-24T20:21:45.450Z,16.77
2023-07-24T20:24:13.693Z,16.64
2023-07-24T20:26:40.715Z,16.52
2023-07-24T20:29:07.316Z,16.54
2023-07-24T20:31:34.464Z,16.71
2023-07-24T20:34:01.234Z,16.53
2023-07-24T20:36:27.690Z,16.64
2023-07-24T20:38:54.158Z,16.76
2023-07-24T20:41:20.602Z,16.63
2023-07-24T20:43:47.062Z,16.50
2023-07-24T20:46:15.610Z,16.51
2023-07-24T20:48:42.663Z,16.65
2023-07-24T20:51:20.060Z,16.56
2023-07-24T20:53:46.560Z,16.66
2023-07-24T20:56:13.086Z,16.57
2023-07-24T20:58:39.790Z,16.69
2023-07-24T21:01:08.158Z,16.43
2023-07-24T21:03:35.063Z,16.19
2023-07-24T21:06:01.620Z,16.42
2023-07-24T21:08:28.129Z,16.31
2023-07-24T21:10:55.267Z,16.36
2023-07-24T21:13:21.768Z,16.27
2023-07-24T21:15:51.161Z,16.22
2023-07-24T21:18:18.717Z,16.22
2023-07-24T21:20:46.874Z,16.13
2023-07-24T21:23:14.288Z,16.25
2023-07-24T21:25:51.254Z,15.98
2023-07-24T21:28:17.689Z,15.91
2023-07-24T21:30:44.297Z,15.78
2023-07-24T21:33:10.863Z,15.77
2023-07-24T21:35:37.309Z,15.77
2023-07-24T21:38:03.722Z,15.65
2023-07-24T21:40:30.189Z,15.57
2023-07-24T21:42:56.877Z,15.54
2023-07-24T21:45:23.464Z,15.52
2023-07-24T21:47:49.953Z,15.63
2023-07-24T21:50:16.565Z,15.51
2023-07-24T21:52:46.339Z,15.52
2023-07-24T21:55:12.894Z,15.43
2023-07-24T21:57:39.389Z,15.34
2023-07-24T22:00:06.526Z,15.28
2023-07-24T22:02:33.001Z,15.40
2023-07-24T22:04:59.449Z,15.36
2023-07-24T22:07:25.877Z,15.34
2023-07-24T22:09:52.288Z,15.15
2023-07-24T22:12:18.758Z,15.19
2023-07-24T22:14:45.174Z,15.02
2023-07-24T22:17:11.635Z,14.99
2023-07-24T22:19:38.136Z,15.00
2023-07-24T22:22:04.828Z,15.05
2023-07-24T22:24:32.698Z,14.99
2023-07-24T22:26:59.193Z,15.11
2023-07-24T22:29:26.182Z,15.02
2023-07-24T22:31:52.613Z,14.94
2023-07-24T22:34:19.038Z,15.12
2023-07-24T22:36:45.634Z,14.90
2023-07-24T22:39:12.070Z,14.92
2023-07-24T22:41:38.490Z,15.04
2023-07-24T22:44:06.345Z,14.97
2023-07-24T22:46:32.878Z,14.94
2023-07-24T22:48:59.333Z,14.81
2023-07-24T22:51:25.762Z,14.93
2023-07-24T22:53:55.890Z,14.69
2023-07-24T22:56:22.752Z,14.96
2023-07-24T22:59:19.569Z,14.87
2023-07-24T23:01:46.619Z,14.93
2023-07-24T23:04:13.664Z,14.83
2023-07-24T23:06:40.185Z,14.70
2023-07-24T23:09:06.731Z,14.68
2023-07-24T23:11:33.702Z,14.64
2023-07-24T23:14:00.646Z,14.57
2023-07-24T23:16:27.151Z,14.46
2023-07-24T23:18:53.640Z,14.46
2023-07-24T23:21:20.100Z,14.53
2023-07-24T23:23:47.016Z,14.45
2023-07-24T23:26:13.470Z,14.56
2023-07-24T23:28:40.386Z,14.42
2023-07-24T23:31:07.573Z,14.30
2023-07-24T23:33:34.749Z,14.26
2023-07-24T23:36:01.244Z,14.31
2023-07-24T23:38:27.706Z,14.50
2023-07-24T23:40:58.223Z,14.36
2023-07-24T23:43:24.725Z,14.31
2023-07-24T23:45:51.304Z,14.38
2023-07-24T23:48:18.117Z,14.46
2023-07-24T23:50:44.558Z,14.31
2023-07-24T23:53:11.168Z,14.28
2023-07-24T23:55:37.629Z,14.30
2023-07-24T23:58:04.104Z,14.33
